»·PEaware :: N1927H KPRC-KFLG

N1927H :: KPRC-KFLG

FLIGHT INFORMATION

Flight Status: Arrived
Operator: Privately registered:
United States
More flights under this callsign
Pilot: Steven A. (25708)
Aircraft: PIPER PA-28R-201 ARROW
(P28R)
More flights by this aircraft type
Origin: KPRC Love
United States
Destination: KFLG Flagstaff Pulliam
United States
More flights between these airports :: More routes between these airports
Route: +
File this flight plan on PilotEdge
Remarks: FF
Altitude:
(Current/Filed)
9,500ft
Speed:
(Current/Filed)
0kts
Departed: 15-Aug-19 02:17 PM
Arrived: 15-Aug-19 02:43 PM
Distance/Time
Traveled:
47nm/0:26
Distance/Time
To Go:
Arrived

Flight Plot

Page will automatically refresh every two minutes.

Flight plan parsing failed; only flown route is shown


Map Options




Map Legend


Flown Route
Filed Route
Departure Airport
Arrival Airport
Navaid (VOR, NDB)
Fix

Horizontal Profiles

Position Reports

Time Latitude Longitude Heading Altitude Ground
Speed
15-Aug-19 14:06 34.646714 -112.424193 308 5043ft 0kts
15-Aug-19 14:07 34.646714 -112.424193 308 5043ft 0kts
15-Aug-19 14:08 34.646811 -112.424613 289 5043ft 4kts
15-Aug-19 14:09 34.649382 -112.423147 40 5043ft 18kts
15-Aug-19 14:10 34.653757 -112.418519 37 5043ft 21kts
15-Aug-19 14:11 34.658028 -112.413890 49 5043ft 17kts
15-Aug-19 14:12 34.660673 -112.410495 40 5043ft 11kts
15-Aug-19 14:13 34.660969 -112.410194 39 5043ft 0kts
15-Aug-19 14:14 34.661149 -112.410120 355 5043ft 0kts
15-Aug-19 14:15 34.661261 -112.412260 221 5043ft 35kts
15-Aug-19 14:16 34.647196 -112.427681 220 5723ft 65kts
15-Aug-19 14:17 34.657358 -112.446848 314 6528ft 78kts
15-Aug-19 14:18 34.675574 -112.435412 64 7212ft 96kts
15-Aug-19 14:19 34.685204 -112.405193 83 7946ft 97kts
15-Aug-19 14:20 34.690302 -112.372699 81 8653ft 99kts
15-Aug-19 14:21 34.703097 -112.344702 48 9353ft 99kts
15-Aug-19 14:22 34.724993 -112.315173 48 9546ft 137kts
15-Aug-19 14:23 34.750933 -112.278672 58 9600ft 145kts
15-Aug-19 14:24 34.773200 -112.236457 54 9555ft 149kts
15-Aug-19 14:25 34.799362 -112.197423 51 9499ft 151kts
15-Aug-19 14:26 34.825517 -112.157250 51 9494ft 149kts
15-Aug-19 14:27 34.851269 -112.117567 51 9488ft 149kts
15-Aug-19 14:28 34.876951 -112.077959 51 9482ft 149kts
15-Aug-19 14:29 34.903037 -112.037665 51 9359ft 152kts
15-Aug-19 14:30 34.929048 -111.997459 51 9373ft 149kts
15-Aug-19 14:31 34.954856 -111.957508 50 9379ft 150kts
15-Aug-19 14:32 34.980771 -111.917360 50 9376ft 151kts
15-Aug-19 14:33 35.006762 -111.877023 50 9363ft 151kts
15-Aug-19 14:34 35.032812 -111.836569 50 9347ft 152kts
15-Aug-19 14:35 35.058740 -111.796269 50 9388ft 150kts
15-Aug-19 14:36 35.084714 -111.755852 51 9288ft 159kts
15-Aug-19 14:37 35.109067 -111.708528 70 8772ft 167kts
15-Aug-19 14:38 35.132653 -111.660084 45 8339ft 166kts
15-Aug-19 14:39 35.159854 -111.631835 352 7904ft 98kts
15-Aug-19 14:40 35.159987 -111.648051 221 7338ft 73kts
15-Aug-19 14:41 35.145424 -111.663770 220 7066ft 59kts
15-Aug-19 14:42 35.140968 -111.669409 304 7013ft 15kts
15-Aug-19 14:43 35.139548 -111.671878 260 7013ft 6kts
15-Aug-19 14:44 35.140340 -111.672483 211 7013ft 0kts
15-Aug-19 14:45 35.140340 -111.672483 211 7013ft 0kts
15-Aug-19 14:46 35.140340 -111.672483 211 7013ft 0kts
15-Aug-19 14:47 35.140340 -111.672483 211 7013ft 0kts
15-Aug-19 14:48 35.140340 -111.672483 211 7013ft 0kts
15-Aug-19 14:49 35.140340 -111.672483 211 7013ft 0kts
15-Aug-19 14:50 35.140340 -111.672483 211 7013ft 0kts
15-Aug-19 14:51 35.140340 -111.672483 211 7013ft 0kts
15-Aug-19 14:52 35.140340 -111.672483 211 7013ft 0kts
15-Aug-19 14:53 35.140340 -111.672483 211 7013ft 0kts
15-Aug-19 14:54 35.140340 -111.672483 211 7013ft 0kts
15-Aug-19 14:55 35.140340 -111.672483 211 7013ft 0kts
15-Aug-19 14:56 35.140340 -111.672483 211 7013ft 0kts

Navigation Log

Ident Type
Flight plan parsing failed, navigation log unavailable